sensor_id;sensor_type;location;lat;lon;timestamp;P1;durP1;ratioP1;P2;durP2;ratioP2
3299;SDS011;1662;49.310;8.134;2023-03-31T00:00:42;5.27;;;2.37;;
3299;SDS011;1662;49.310;8.134;2023-03-31T00:03:10;7.07;;;3.00;;
3299;SDS011;1662;49.310;8.134;2023-03-31T00:05:37;2.20;;;2.10;;
3299;SDS011;1662;49.310;8.134;2023-03-31T00:08:03;6.90;;;2.83;;
3299;SDS011;1662;49.310;8.134;2023-03-31T00:10:29;8.40;;;2.80;;
3299;SDS011;1662;49.310;8.134;2023-03-31T00:12:57;5.03;;;2.57;;
3299;SDS011;1662;49.310;8.134;2023-03-31T00:15:26;10.20;;;3.20;;
3299;SDS011;1662;49.310;8.134;2023-03-31T00:17:52;7.03;;;2.87;;
3299;SDS011;1662;49.310;8.134;2023-03-31T00:20:21;3.63;;;2.50;;
3299;SDS011;1662;49.310;8.134;2023-03-31T00:22:49;8.93;;;2.37;;
3299;SDS011;1662;49.310;8.134;2023-03-31T00:25:18;10.67;;;2.40;;
3299;SDS011;1662;49.310;8.134;2023-03-31T00:27:44;4.67;;;3.07;;
3299;SDS011;1662;49.310;8.134;2023-03-31T00:30:13;3.90;;;2.00;;
3299;SDS011;1662;49.310;8.134;2023-03-31T00:32:40;3.20;;;1.97;;
3299;SDS011;1662;49.310;8.134;2023-03-31T00:35:05;4.93;;;2.27;;
3299;SDS011;1662;49.310;8.134;2023-03-31T00:37:35;9.40;;;2.40;;
3299;SDS011;1662;49.310;8.134;2023-03-31T00:40:18;9.50;;;2.97;;
3299;SDS011;1662;49.310;8.134;2023-03-31T00:42:46;4.50;;;2.20;;
3299;SDS011;1662;49.310;8.134;2023-03-31T00:45:24;11.53;;;2.70;;
3299;SDS011;1662;49.310;8.134;2023-03-31T00:50:30;6.07;;;2.00;;
3299;SDS011;1662;49.310;8.134;2023-03-31T00:53:11;7.40;;;2.60;;
3299;SDS011;1662;49.310;8.134;2023-03-31T00:55:44;5.33;;;1.90;;
3299;SDS011;1662;49.310;8.134;2023-03-31T00:58:13;5.60;;;2.40;;
3299;SDS011;1662;49.310;8.134;2023-03-31T01:00:44;6.23;;;2.20;;
3299;SDS011;1662;49.310;8.134;2023-03-31T01:03:12;3.87;;;2.00;;
3299;SDS011;1662;49.310;8.134;2023-03-31T01:05:42;2.13;;;2.03;;
3299;SDS011;1662;49.310;8.134;2023-03-31T01:08:14;4.40;;;2.60;;
3299;SDS011;1662;49.310;8.134;2023-03-31T01:10:46;5.20;;;2.23;;
3299;SDS011;1662;49.310;8.134;2023-03-31T01:13:15;6.83;;;2.53;;
3299;SDS011;1662;49.310;8.134;2023-03-31T01:15:42;11.13;;;2.30;;
3299;SDS011;1662;49.310;8.134;2023-03-31T01:18:09;7.07;;;3.20;;
3299;SDS011;1662;49.310;8.134;2023-03-31T01:26:37;6.77;;;3.30;;
3299;SDS011;1662;49.310;8.134;2023-03-31T01:37:41;5.57;;;2.10;;
3299;SDS011;1662;49.310;8.134;2023-03-31T01:52:07;7.60;;;2.10;;
3299;SDS011;1662;49.310;8.134;2023-03-31T01:57:11;4.13;;;2.30;;
3299;SDS011;1662;49.310;8.134;2023-03-31T02:02:37;5.43;;;2.33;;
3299;SDS011;1662;49.310;8.134;2023-03-31T02:05:23;3.17;;;2.00;;
3299;SDS011;1662;49.310;8.134;2023-03-31T02:07:55;9.43;;;2.17;;
3299;SDS011;1662;49.310;8.134;2023-03-31T02:10:36;2.23;;;2.03;;
3299;SDS011;1662;49.310;8.134;2023-03-31T02:13:05;9.90;;;2.30;;
3299;SDS011;1662;49.310;8.134;2023-03-31T02:15:36;3.13;;;1.50;;
3299;SDS011;1662;49.310;8.134;2023-03-31T02:18:05;4.40;;;1.70;;
3299;SDS011;1662;49.310;8.134;2023-03-31T02:20:36;8.70;;;1.93;;
3299;SDS011;1662;49.310;8.134;2023-03-31T02:23:06;3.47;;;1.70;;
3299;SDS011;1662;49.310;8.134;2023-03-31T02:25:37;7.80;;;2.93;;
3299;SDS011;1662;49.310;8.134;2023-03-31T02:28:11;2.93;;;2.17;;
3299;SDS011;1662;49.310;8.134;2023-03-31T02:33:34;2.57;;;2.37;;
3299;SDS011;1662;49.310;8.134;2023-03-31T02:36:00;8.43;;;2.40;;
3299;SDS011;1662;49.310;8.134;2023-03-31T02:38:28;12.00;;;2.83;;
3299;SDS011;1662;49.310;8.134;2023-03-31T02:40:58;5.53;;;2.10;;
3299;SDS011;1662;49.310;8.134;2023-03-31T02:43:24;6.03;;;2.10;;
3299;SDS011;1662;49.310;8.134;2023-03-31T02:45:50;4.23;;;2.50;;
3299;SDS011;1662;49.310;8.134;2023-03-31T02:51:08;4.03;;;2.00;;
3299;SDS011;1662;49.310;8.134;2023-03-31T02:57:18;4.30;;;2.37;;
3299;SDS011;1662;49.310;8.134;2023-03-31T03:09:03;2.70;;;1.93;;
3299;SDS011;1662;49.310;8.134;2023-03-31T03:12:09;3.13;;;1.90;;
3299;SDS011;1662;49.310;8.134;2023-03-31T03:15:07;5.10;;;2.20;;
3299;SDS011;1662;49.310;8.134;2023-03-31T03:17:43;2.30;;;1.73;;
3299;SDS011;1662;49.310;8.134;2023-03-31T03:20:12;2.53;;;2.17;;
3299;SDS011;1662;49.310;8.134;2023-03-31T03:22:42;7.33;;;1.90;;
3299;SDS011;1662;49.310;8.134;2023-03-31T03:25:10;3.90;;;2.10;;
3299;SDS011;1662;49.310;8.134;2023-03-31T03:27:37;4.37;;;2.20;;
3299;SDS011;1662;49.310;8.134;2023-03-31T03:30:04;6.57;;;2.33;;
3299;SDS011;1662;49.310;8.134;2023-03-31T03:32:32;10.30;;;2.50;;
3299;SDS011;1662;49.310;8.134;2023-03-31T03:34:59;7.23;;;3.10;;
3299;SDS011;1662;49.310;8.134;2023-03-31T03:37:25;3.17;;;2.90;;
3299;SDS011;1662;49.310;8.134;2023-03-31T03:39:51;4.73;;;2.30;;
3299;SDS011;1662;49.310;8.134;2023-03-31T03:42:17;6.50;;;2.67;;
3299;SDS011;1662;49.310;8.134;2023-03-31T03:44:42;4.30;;;3.00;;
3299;SDS011;1662;49.310;8.134;2023-03-31T03:47:09;12.80;;;4.37;;
3299;SDS011;1662;49.310;8.134;2023-03-31T03:49:35;4.47;;;2.77;;
3299;SDS011;1662;49.310;8.134;2023-03-31T03:52:02;8.57;;;2.43;;
3299;SDS011;1662;49.310;8.134;2023-03-31T03:54:28;3.37;;;2.13;;
3299;SDS011;1662;49.310;8.134;2023-03-31T03:56:53;7.67;;;2.97;;
3299;SDS011;1662;49.310;8.134;2023-03-31T03:59:19;5.33;;;1.70;;
3299;SDS011;1662;49.310;8.134;2023-03-31T04:01:46;4.57;;;2.47;;
3299;SDS011;1662;49.310;8.134;2023-03-31T04:04:12;6.60;;;2.53;;
3299;SDS011;1662;49.310;8.134;2023-03-31T04:06:37;4.17;;;2.17;;
3299;SDS011;1662;49.310;8.134;2023-03-31T04:09:06;5.20;;;2.17;;
3299;SDS011;1662;49.310;8.134;2023-03-31T04:11:32;3.30;;;2.43;;
3299;SDS011;1662;49.310;8.134;2023-03-31T04:14:01;3.10;;;2.63;;
3299;SDS011;1662;49.310;8.134;2023-03-31T04:16:27;2.90;;;2.70;;
3299;SDS011;1662;49.310;8.134;2023-03-31T04:18:53;4.83;;;2.83;;
3299;SDS011;1662;49.310;8.134;2023-03-31T04:21:23;4.77;;;2.70;;
3299;SDS011;1662;49.310;8.134;2023-03-31T04:23:53;6.50;;;4.07;;
3299;SDS011;1662;49.310;8.134;2023-03-31T04:26:29;4.93;;;2.73;;
3299;SDS011;1662;49.310;8.134;2023-03-31T04:29:14;2.50;;;2.30;;
3299;SDS011;1662;49.310;8.134;2023-03-31T04:31:40;3.60;;;2.07;;
3299;SDS011;1662;49.310;8.134;2023-03-31T04:34:10;4.17;;;2.60;;
3299;SDS011;1662;49.310;8.134;2023-03-31T04:36:44;4.23;;;3.07;;
3299;SDS011;1662;49.310;8.134;2023-03-31T04:39:17;11.63;;;3.40;;
3299;SDS011;1662;49.310;8.134;2023-03-31T04:41:54;11.70;;;2.60;;
3299;SDS011;1662;49.310;8.134;2023-03-31T04:44:24;6.20;;;2.73;;
3299;SDS011;1662;49.310;8.134;2023-03-31T04:46:53;6.03;;;2.80;;
3299;SDS011;1662;49.310;8.134;2023-03-31T04:49:30;4.27;;;2.73;;
3299;SDS011;1662;49.310;8.134;2023-03-31T04:51:57;4.50;;;2.97;;
3299;SDS011;1662;49.310;8.134;2023-03-31T04:54:23;9.40;;;2.77;;
3299;SDS011;1662;49.310;8.134;2023-03-31T04:56:48;9.67;;;3.80;;
3299;SDS011;1662;49.310;8.134;2023-03-31T04:59:22;6.10;;;3.90;;
3299;SDS011;1662;49.310;8.134;2023-03-31T05:01:49;3.37;;;2.53;;
3299;SDS011;1662;49.310;8.134;2023-03-31T05:04:15;5.83;;;2.80;;
3299;SDS011;1662;49.310;8.134;2023-03-31T05:06:41;6.60;;;2.70;;
3299;SDS011;1662;49.310;8.134;2023-03-31T05:09:07;3.90;;;3.03;;
3299;SDS011;1662;49.310;8.134;2023-03-31T05:11:34;3.80;;;3.07;;
3299;SDS011;1662;49.310;8.134;2023-03-31T05:14:00;5.20;;;3.40;;
3299;SDS011;1662;49.310;8.134;2023-03-31T05:16:40;6.33;;;3.80;;
3299;SDS011;1662;49.310;8.134;2023-03-31T05:19:09;7.13;;;3.27;;
3299;SDS011;1662;49.310;8.134;2023-03-31T05:21:38;4.20;;;3.13;;
3299;SDS011;1662;49.310;8.134;2023-03-31T05:24:15;4.80;;;2.73;;
3299;SDS011;1662;49.310;8.134;2023-03-31T05:26:51;10.93;;;3.60;;
3299;SDS011;1662;49.310;8.134;2023-03-31T05:29:18;9.10;;;3.90;;
3299;SDS011;1662;49.310;8.134;2023-03-31T05:31:44;6.63;;;3.77;;
3299;SDS011;1662;49.310;8.134;2023-03-31T05:34:10;4.50;;;4.07;;
3299;SDS011;1662;49.310;8.134;2023-03-31T05:36:36;8.63;;;4.40;;
3299;SDS011;1662;49.310;8.134;2023-03-31T05:39:17;5.00;;;4.10;;
3299;SDS011;1662;49.310;8.134;2023-03-31T05:41:43;7.57;;;4.53;;
3299;SDS011;1662;49.310;8.134;2023-03-31T05:44:08;11.23;;;4.90;;
3299;SDS011;1662;49.310;8.134;2023-03-31T05:46:35;5.97;;;4.53;;
3299;SDS011;1662;49.310;8.134;2023-03-31T05:49:00;5.47;;;4.87;;
3299;SDS011;1662;49.310;8.134;2023-03-31T05:51:29;8.03;;;4.50;;
3299;SDS011;1662;49.310;8.134;2023-03-31T05:53:57;7.03;;;4.37;;
3299;SDS011;1662;49.310;8.134;2023-03-31T05:56:24;9.70;;;4.53;;
3299;SDS011;1662;49.310;8.134;2023-03-31T05:58:51;5.50;;;5.00;;
3299;SDS011;1662;49.310;8.134;2023-03-31T06:01:19;9.20;;;6.07;;
3299;SDS011;1662;49.310;8.134;2023-03-31T06:03:47;11.70;;;5.57;;
3299;SDS011;1662;49.310;8.134;2023-03-31T06:06:13;12.10;;;6.20;;
3299;SDS011;1662;49.310;8.134;2023-03-31T06:08:40;9.30;;;6.47;;
3299;SDS011;1662;49.310;8.134;2023-03-31T06:11:08;8.57;;;5.03;;
3299;SDS011;1662;49.310;8.134;2023-03-31T06:13:36;11.07;;;6.10;;
3299;SDS011;1662;49.310;8.134;2023-03-31T06:16:04;9.33;;;5.30;;
3299;SDS011;1662;49.310;8.134;2023-03-31T06:18:31;11.07;;;6.37;;
3299;SDS011;1662;49.310;8.134;2023-03-31T06:21:04;10.63;;;6.10;;
3299;SDS011;1662;49.310;8.134;2023-03-31T06:23:40;6.67;;;5.43;;
3299;SDS011;1662;49.310;8.134;2023-03-31T06:26:06;11.30;;;7.47;;
3299;SDS011;1662;49.310;8.134;2023-03-31T06:28:35;14.20;;;6.80;;
3299;SDS011;1662;49.310;8.134;2023-03-31T06:31:08;7.63;;;5.80;;
3299;SDS011;1662;49.310;8.134;2023-03-31T06:33:39;10.63;;;6.70;;
3299;SDS011;1662;49.310;8.134;2023-03-31T06:36:11;9.53;;;7.30;;
3299;SDS011;1662;49.310;8.134;2023-03-31T06:38:41;15.47;;;7.30;;
3299;SDS011;1662;49.310;8.134;2023-03-31T06:44:08;14.50;;;8.50;;
3299;SDS011;1662;49.310;8.134;2023-03-31T06:46:34;11.40;;;6.63;;
3299;SDS011;1662;49.310;8.134;2023-03-31T06:49:26;10.97;;;6.90;;
3299;SDS011;1662;49.310;8.134;2023-03-31T06:51:55;11.53;;;7.97;;
3299;SDS011;1662;49.310;8.134;2023-03-31T06:54:37;9.00;;;6.80;;
3299;SDS011;1662;49.310;8.134;2023-03-31T06:57:14;11.90;;;7.50;;
3299;SDS011;1662;49.310;8.134;2023-03-31T07:00:06;8.60;;;7.60;;
3299;SDS011;1662;49.310;8.134;2023-03-31T07:02:35;8.53;;;7.70;;
3299;SDS011;1662;49.310;8.134;2023-03-31T07:05:02;9.77;;;7.93;;
3299;SDS011;1662;49.310;8.134;2023-03-31T07:07:31;8.97;;;7.50;;
3299;SDS011;1662;49.310;8.134;2023-03-31T07:10:14;9.93;;;7.53;;
3299;SDS011;1662;49.310;8.134;2023-03-31T07:13:24;9.77;;;7.83;;
3299;SDS011;1662;49.310;8.134;2023-03-31T07:15:59;11.67;;;7.60;;
3299;SDS011;1662;49.310;8.134;2023-03-31T07:18:26;11.00;;;7.77;;
3299;SDS011;1662;49.310;8.134;2023-03-31T07:20:59;8.27;;;7.43;;
3299;SDS011;1662;49.310;8.134;2023-03-31T07:23:29;13.27;;;7.57;;
3299;SDS011;1662;49.310;8.134;2023-03-31T07:25:59;7.30;;;6.47;;
3299;SDS011;1662;49.310;8.134;2023-03-31T07:28:35;12.10;;;7.00;;
3299;SDS011;1662;49.310;8.134;2023-03-31T07:31:09;9.87;;;6.33;;
3299;SDS011;1662;49.310;8.134;2023-03-31T07:33:36;9.13;;;6.53;;
3299;SDS011;1662;49.310;8.134;2023-03-31T07:36:15;9.77;;;6.77;;
3299;SDS011;1662;49.310;8.134;2023-03-31T07:38:42;7.80;;;7.00;;
3299;SDS011;1662;49.310;8.134;2023-03-31T07:41:16;11.20;;;7.10;;
3299;SDS011;1662;49.310;8.134;2023-03-31T07:43:46;11.10;;;6.70;;
3299;SDS011;1662;49.310;8.134;2023-03-31T07:46:22;6.97;;;6.27;;
3299;SDS011;1662;49.310;8.134;2023-03-31T07:48:55;9.77;;;6.07;;
3299;SDS011;1662;49.310;8.134;2023-03-31T07:51:22;5.97;;;5.30;;
3299;SDS011;1662;49.310;8.134;2023-03-31T07:53:52;8.30;;;5.20;;
3299;SDS011;1662;49.310;8.134;2023-03-31T07:56:22;6.23;;;5.40;;
3299;SDS011;1662;49.310;8.134;2023-03-31T07:58:49;7.53;;;4.73;;
3299;SDS011;1662;49.310;8.134;2023-03-31T08:01:20;15.93;;;5.97;;
3299;SDS011;1662;49.310;8.134;2023-03-31T08:03:50;9.50;;;5.83;;
3299;SDS011;1662;49.310;8.134;2023-03-31T08:06:27;6.30;;;5.73;;
3299;SDS011;1662;49.310;8.134;2023-03-31T08:08:55;6.60;;;6.00;;
3299;SDS011;1662;49.310;8.134;2023-03-31T08:11:24;9.57;;;8.00;;
3299;SDS011;1662;49.310;8.134;2023-03-31T08:13:50;10.17;;;7.47;;
3299;SDS011;1662;49.310;8.134;2023-03-31T08:16:17;7.80;;;5.77;;
3299;SDS011;1662;49.310;8.134;2023-03-31T08:18:46;7.43;;;6.70;;
3299;SDS011;1662;49.310;8.134;2023-03-31T08:21:13;7.53;;;6.50;;
3299;SDS011;1662;49.310;8.134;2023-03-31T08:23:41;9.33;;;4.73;;
3299;SDS011;1662;49.310;8.134;2023-03-31T08:26:11;10.80;;;5.50;;
3299;SDS011;1662;49.310;8.134;2023-03-31T08:28:45;6.40;;;4.60;;
3299;SDS011;1662;49.310;8.134;2023-03-31T08:31:14;5.00;;;4.07;;
3299;SDS011;1662;49.310;8.134;2023-03-31T08:33:42;6.17;;;4.50;;
3299;SDS011;1662;49.310;8.134;2023-03-31T08:36:11;10.23;;;4.77;;
3299;SDS011;1662;49.310;8.134;2023-03-31T08:38:38;7.37;;;4.90;;
3299;SDS011;1662;49.310;8.134;2023-03-31T08:41:20;8.03;;;4.73;;
3299;SDS011;1662;49.310;8.134;2023-03-31T08:44:33;9.17;;;4.87;;
3299;SDS011;1662;49.310;8.134;2023-03-31T08:47:06;6.47;;;4.43;;
3299;SDS011;1662;49.310;8.134;2023-03-31T08:49:51;5.97;;;4.00;;
3299;SDS011;1662;49.310;8.134;2023-03-31T08:52:25;8.57;;;5.10;;
3299;SDS011;1662;49.310;8.134;2023-03-31T08:55:03;9.60;;;4.47;;
3299;SDS011;1662;49.310;8.134;2023-03-31T08:58:06;13.20;;;4.80;;
3299;SDS011;1662;49.310;8.134;2023-03-31T09:00:44;5.80;;;3.53;;
3299;SDS011;1662;49.310;8.134;2023-03-31T09:03:27;8.13;;;4.40;;
3299;SDS011;1662;49.310;8.134;2023-03-31T09:06:07;6.23;;;3.40;;
3299;SDS011;1662;49.310;8.134;2023-03-31T09:08:44;7.47;;;3.77;;
3299;SDS011;1662;49.310;8.134;2023-03-31T09:11:34;5.53;;;3.10;;
3299;SDS011;1662;49.310;8.134;2023-03-31T09:20:16;7.80;;;4.07;;
3299;SDS011;1662;49.310;8.134;2023-03-31T09:22:48;3.70;;;3.40;;
3299;SDS011;1662;49.310;8.134;2023-03-31T09:25:22;6.20;;;3.40;;
3299;SDS011;1662;49.310;8.134;2023-03-31T09:27:53;4.43;;;3.30;;
3299;SDS011;1662;49.310;8.134;2023-03-31T09:30:23;8.40;;;5.20;;
3299;SDS011;1662;49.310;8.134;2023-03-31T09:32:53;4.70;;;2.83;;
3299;SDS011;1662;49.310;8.134;2023-03-31T09:35:42;3.73;;;2.63;;
3299;SDS011;1662;49.310;8.134;2023-03-31T09:38:09;4.83;;;2.73;;
3299;SDS011;1662;49.310;8.134;2023-03-31T09:40:36;9.50;;;3.13;;
3299;SDS011;1662;49.310;8.134;2023-03-31T09:43:17;7.80;;;3.10;;
3299;SDS011;1662;49.310;8.134;2023-03-31T09:46:05;4.77;;;3.03;;
3299;SDS011;1662;49.310;8.134;2023-03-31T09:48:52;10.60;;;3.70;;
3299;SDS011;1662;49.310;8.134;2023-03-31T09:51:42;13.97;;;3.40;;
3299;SDS011;1662;49.310;8.134;2023-03-31T09:54:15;9.17;;;3.13;;
3299;SDS011;1662;49.310;8.134;2023-03-31T09:56:50;7.50;;;2.97;;
3299;SDS011;1662;49.310;8.134;2023-03-31T09:59:29;4.13;;;2.27;;
3299;SDS011;1662;49.310;8.134;2023-03-31T10:02:21;6.83;;;2.70;;
3299;SDS011;1662;49.310;8.134;2023-03-31T10:04:59;7.23;;;3.17;;
3299;SDS011;1662;49.310;8.134;2023-03-31T10:07:25;13.23;;;2.83;;
3299;SDS011;1662;49.310;8.134;2023-03-31T10:09:53;7.03;;;2.63;;
3299;SDS011;1662;49.310;8.134;2023-03-31T10:12:22;8.73;;;3.20;;
3299;SDS011;1662;49.310;8.134;2023-03-31T10:14:53;3.90;;;2.67;;
3299;SDS011;1662;49.310;8.134;2023-03-31T10:17:26;8.93;;;2.87;;
3299;SDS011;1662;49.310;8.134;2023-03-31T10:19:57;8.70;;;2.93;;
3299;SDS011;1662;49.310;8.134;2023-03-31T10:22:44;8.60;;;3.20;;
3299;SDS011;1662;49.310;8.134;2023-03-31T10:25:16;7.03;;;3.47;;
3299;SDS011;1662;49.310;8.134;2023-03-31T10:28:05;5.23;;;2.53;;
3299;SDS011;1662;49.310;8.134;2023-03-31T10:30:35;9.13;;;3.10;;
3299;SDS011;1662;49.310;8.134;2023-03-31T10:33:10;9.73;;;2.90;;
3299;SDS011;1662;49.310;8.134;2023-03-31T10:36:11;15.33;;;3.17;;
3299;SDS011;1662;49.310;8.134;2023-03-31T10:39:05;3.00;;;1.40;;
3299;SDS011;1662;49.310;8.134;2023-03-31T10:41:40;2.10;;;1.80;;
3299;SDS011;1662;49.310;8.134;2023-03-31T10:47:18;5.33;;;2.40;;
3299;SDS011;1662;49.310;8.134;2023-03-31T10:49:47;12.33;;;2.40;;
3299;SDS011;1662;49.310;8.134;2023-03-31T10:52:25;2.40;;;1.53;;
3299;SDS011;1662;49.310;8.134;2023-03-31T10:54:57;6.10;;;2.30;;
3299;SDS011;1662;49.310;8.134;2023-03-31T10:57:36;1.73;;;1.30;;
3299;SDS011;1662;49.310;8.134;2023-03-31T11:11:21;2.93;;;2.07;;
3299;SDS011;1662;49.310;8.134;2023-03-31T11:16:55;4.70;;;1.80;;
3299;SDS011;1662;49.310;8.134;2023-03-31T11:24:59;6.50;;;2.07;;
3299;SDS011;1662;49.310;8.134;2023-03-31T11:30:39;7.43;;;3.00;;
3299;SDS011;1662;49.310;8.134;2023-03-31T11:33:26;4.63;;;2.50;;
3299;SDS011;1662;49.310;8.134;2023-03-31T11:41:51;9.47;;;3.13;;
3299;SDS011;1662;49.310;8.134;2023-03-31T11:44:21;7.27;;;2.70;;
3299;SDS011;1662;49.310;8.134;2023-03-31T11:46:51;4.43;;;2.80;;
3299;SDS011;1662;49.310;8.134;2023-03-31T11:52:26;6.50;;;3.07;;
3299;SDS011;1662;49.310;8.134;2023-03-31T11:55:04;7.60;;;3.50;;
3299;SDS011;1662;49.310;8.134;2023-03-31T11:57:57;6.63;;;1.87;;
3299;SDS011;1662;49.310;8.134;2023-03-31T12:00:29;2.63;;;1.33;;
3299;SDS011;1662;49.310;8.134;2023-03-31T12:03:12;4.57;;;1.33;;
3299;SDS011;1662;49.310;8.134;2023-03-31T12:06:01;1.67;;;1.43;;
3299;SDS011;1662;49.310;8.134;2023-03-31T12:08:33;4.60;;;1.60;;
3299;SDS011;1662;49.310;8.134;2023-03-31T12:17:11;3.00;;;1.20;;
3299;SDS011;1662;49.310;8.134;2023-03-31T12:22:17;1.70;;;1.30;;
3299;SDS011;1662;49.310;8.134;2023-03-31T12:24:55;2.90;;;1.47;;
3299;SDS011;1662;49.310;8.134;2023-03-31T12:27:25;2.97;;;1.33;;
3299;SDS011;1662;49.310;8.134;2023-03-31T12:30:40;1.10;;;1.00;;
3299;SDS011;1662;49.310;8.134;2023-03-31T12:33:04;4.60;;;1.30;;
3299;SDS011;1662;49.310;8.134;2023-03-31T12:38:40;2.27;;;1.73;;
3299;SDS011;1662;49.310;8.134;2023-03-31T12:41:13;2.17;;;1.70;;
3299;SDS011;1662;49.310;8.134;2023-03-31T12:52:03;1.87;;;1.10;;
3299;SDS011;1662;49.310;8.134;2023-03-31T12:57:28;2.70;;;1.60;;
3299;SDS011;1662;49.310;8.134;2023-03-31T13:00:09;2.03;;;1.60;;
3299;SDS011;1662;49.310;8.134;2023-03-31T13:02:48;1.50;;;1.37;;
3299;SDS011;1662;49.310;8.134;2023-03-31T13:08:02;4.90;;;1.73;;
3299;SDS011;1662;49.310;8.134;2023-03-31T13:13:22;3.30;;;1.57;;
3299;SDS011;1662;49.310;8.134;2023-03-31T13:15:53;3.03;;;1.53;;
3299;SDS011;1662;49.310;8.134;2023-03-31T13:18:23;2.70;;;1.80;;
3299;SDS011;1662;49.310;8.134;2023-03-31T13:23:25;2.00;;;1.80;;
3299;SDS011;1662;49.310;8.134;2023-03-31T13:25:55;4.13;;;2.10;;
3299;SDS011;1662;49.310;8.134;2023-03-31T13:31:12;1.90;;;1.67;;
3299;SDS011;1662;49.310;8.134;2023-03-31T13:33:41;6.67;;;2.20;;
3299;SDS011;1662;49.310;8.134;2023-03-31T13:36:20;3.53;;;1.73;;
3299;SDS011;1662;49.310;8.134;2023-03-31T13:59:17;4.17;;;1.73;;
3299;SDS011;1662;49.310;8.134;2023-03-31T14:07:52;2.10;;;1.37;;
3299;SDS011;1662;49.310;8.134;2023-03-31T14:10:25;4.20;;;2.13;;
3299;SDS011;1662;49.310;8.134;2023-03-31T14:13:06;6.90;;;2.53;;
3299;SDS011;1662;49.310;8.134;2023-03-31T14:18:09;3.87;;;2.20;;
3299;SDS011;1662;49.310;8.134;2023-03-31T14:26:14;2.73;;;1.80;;
3299;SDS011;1662;49.310;8.134;2023-03-31T14:34:19;4.50;;;2.73;;
3299;SDS011;1662;49.310;8.134;2023-03-31T14:37:03;3.83;;;2.10;;
3299;SDS011;1662;49.310;8.134;2023-03-31T14:39:34;4.80;;;2.00;;
3299;SDS011;1662;49.310;8.134;2023-03-31T14:42:05;4.40;;;2.10;;
3299;SDS011;1662;49.310;8.134;2023-03-31T14:44:39;4.00;;;1.77;;
3299;SDS011;1662;49.310;8.134;2023-03-31T14:49:45;3.97;;;2.13;;
3299;SDS011;1662;49.310;8.134;2023-03-31T14:52:16;3.23;;;1.80;;
3299;SDS011;1662;49.310;8.134;2023-03-31T14:54:43;3.97;;;1.97;;
3299;SDS011;1662;49.310;8.134;2023-03-31T14:57:12;2.53;;;2.10;;
3299;SDS011;1662;49.310;8.134;2023-03-31T14:59:41;2.80;;;1.80;;
3299;SDS011;1662;49.310;8.134;2023-03-31T15:02:08;5.37;;;2.33;;
3299;SDS011;1662;49.310;8.134;2023-03-31T15:04:46;4.20;;;2.07;;
3299;SDS011;1662;49.310;8.134;2023-03-31T15:07:13;6.80;;;2.10;;
3299;SDS011;1662;49.310;8.134;2023-03-31T15:09:41;2.80;;;1.70;;
3299;SDS011;1662;49.310;8.134;2023-03-31T15:12:13;3.77;;;1.90;;
3299;SDS011;1662;49.310;8.134;2023-03-31T15:14:44;4.90;;;1.80;;
3299;SDS011;1662;49.310;8.134;2023-03-31T15:17:18;3.33;;;1.97;;
3299;SDS011;1662;49.310;8.134;2023-03-31T15:20:00;9.53;;;2.27;;
3299;SDS011;1662;49.310;8.134;2023-03-31T15:22:45;3.63;;;2.20;;
3299;SDS011;1662;49.310;8.134;2023-03-31T15:25:13;4.87;;;1.73;;
3299;SDS011;1662;49.310;8.134;2023-03-31T15:27:49;5.77;;;2.17;;
3299;SDS011;1662;49.310;8.134;2023-03-31T15:30:21;2.03;;;1.93;;
3299;SDS011;1662;49.310;8.134;2023-03-31T15:32:49;8.37;;;2.07;;
3299;SDS011;1662;49.310;8.134;2023-03-31T15:35:19;7.97;;;2.17;;
3299;SDS011;1662;49.310;8.134;2023-03-31T15:37:58;4.63;;;1.40;;
3299;SDS011;1662;49.310;8.134;2023-03-31T15:40:28;4.30;;;1.90;;
3299;SDS011;1662;49.310;8.134;2023-03-31T15:43:04;2.30;;;1.70;;
3299;SDS011;1662;49.310;8.134;2023-03-31T15:45:51;5.07;;;1.90;;
3299;SDS011;1662;49.310;8.134;2023-03-31T15:53:45;1.60;;;1.50;;
3299;SDS011;1662;49.310;8.134;2023-03-31T15:59:43;3.93;;;2.20;;
3299;SDS011;1662;49.310;8.134;2023-03-31T16:02:15;2.30;;;2.00;;
3299;SDS011;1662;49.310;8.134;2023-03-31T16:04:46;4.17;;;2.33;;
3299;SDS011;1662;49.310;8.134;2023-03-31T16:07:22;3.13;;;1.70;;
3299;SDS011;1662;49.310;8.134;2023-03-31T16:09:52;3.63;;;1.93;;
3299;SDS011;1662;49.310;8.134;2023-03-31T16:17:33;6.00;;;2.37;;
3299;SDS011;1662;49.310;8.134;2023-03-31T16:20:25;5.67;;;2.67;;
3299;SDS011;1662;49.310;8.134;2023-03-31T16:22:53;4.43;;;1.80;;
3299;SDS011;1662;49.310;8.134;2023-03-31T16:25:25;8.30;;;1.83;;
3299;SDS011;1662;49.310;8.134;2023-03-31T16:27:54;4.23;;;2.43;;
3299;SDS011;1662;49.310;8.134;2023-03-31T16:30:32;2.70;;;2.17;;
3299;SDS011;1662;49.310;8.134;2023-03-31T16:33:08;2.97;;;2.20;;
3299;SDS011;1662;49.310;8.134;2023-03-31T16:35:41;3.10;;;1.47;;
3299;SDS011;1662;49.310;8.134;2023-03-31T16:38:09;4.40;;;2.10;;
3299;SDS011;1662;49.310;8.134;2023-03-31T16:40:43;4.20;;;1.83;;
3299;SDS011;1662;49.310;8.134;2023-03-31T16:43:14;2.93;;;1.70;;
3299;SDS011;1662;49.310;8.134;2023-03-31T16:45:48;1.20;;;1.20;;
3299;SDS011;1662;49.310;8.134;2023-03-31T16:48:18;3.67;;;2.30;;
3299;SDS011;1662;49.310;8.134;2023-03-31T16:50:54;4.17;;;2.23;;
3299;SDS011;1662;49.310;8.134;2023-03-31T16:53:31;2.63;;;1.30;;
3299;SDS011;1662;49.310;8.134;2023-03-31T16:55:58;1.33;;;1.20;;
3299;SDS011;1662;49.310;8.134;2023-03-31T16:58:24;1.40;;;1.00;;
3299;SDS011;1662;49.310;8.134;2023-03-31T17:00:54;2.50;;;2.00;;
3299;SDS011;1662;49.310;8.134;2023-03-31T17:03:21;3.37;;;1.30;;
3299;SDS011;1662;49.310;8.134;2023-03-31T17:05:50;3.43;;;0.90;;
3299;SDS011;1662;49.310;8.134;2023-03-31T17:08:19;1.30;;;1.30;;
3299;SDS011;1662;49.310;8.134;2023-03-31T17:10:55;1.20;;;1.10;;
3299;SDS011;1662;49.310;8.134;2023-03-31T17:13:24;2.57;;;1.60;;
3299;SDS011;1662;49.310;8.134;2023-03-31T17:15:51;3.83;;;1.27;;
3299;SDS011;1662;49.310;8.134;2023-03-31T17:18:17;2.50;;;1.37;;
3299;SDS011;1662;49.310;8.134;2023-03-31T17:20:43;1.60;;;1.13;;
3299;SDS011;1662;49.310;8.134;2023-03-31T17:23:09;1.67;;;1.17;;
3299;SDS011;1662;49.310;8.134;2023-03-31T17:25:35;1.10;;;1.10;;
3299;SDS011;1662;49.310;8.134;2023-03-31T17:28:01;1.67;;;1.57;;
3299;SDS011;1662;49.310;8.134;2023-03-31T17:30:28;1.40;;;1.30;;
3299;SDS011;1662;49.310;8.134;2023-03-31T17:32:55;3.87;;;1.47;;
3299;SDS011;1662;49.310;8.134;2023-03-31T17:35:21;1.97;;;1.73;;
3299;SDS011;1662;49.310;8.134;2023-03-31T17:37:47;2.60;;;1.20;;
3299;SDS011;1662;49.310;8.134;2023-03-31T17:40:23;5.60;;;1.90;;
3299;SDS011;1662;49.310;8.134;2023-03-31T17:42:50;4.73;;;1.90;;
3299;SDS011;1662;49.310;8.134;2023-03-31T17:45:16;3.17;;;1.53;;
3299;SDS011;1662;49.310;8.134;2023-03-31T17:47:42;5.03;;;1.50;;
3299;SDS011;1662;49.310;8.134;2023-03-31T17:50:10;2.13;;;1.90;;
3299;SDS011;1662;49.310;8.134;2023-03-31T17:52:36;4.13;;;1.97;;
3299;SDS011;1662;49.310;8.134;2023-03-31T17:55:03;3.57;;;1.60;;
3299;SDS011;1662;49.310;8.134;2023-03-31T17:57:29;5.20;;;1.57;;
3299;SDS011;1662;49.310;8.134;2023-03-31T17:59:56;6.47;;;1.97;;
3299;SDS011;1662;49.310;8.134;2023-03-31T18:02:22;5.37;;;2.10;;
3299;SDS011;1662;49.310;8.134;2023-03-31T18:04:51;5.23;;;2.27;;
3299;SDS011;1662;49.310;8.134;2023-03-31T18:07:19;3.63;;;2.03;;
3299;SDS011;1662;49.310;8.134;2023-03-31T18:09:47;3.17;;;1.70;;
3299;SDS011;1662;49.310;8.134;2023-03-31T18:12:13;3.03;;;2.07;;
3299;SDS011;1662;49.310;8.134;2023-03-31T18:14:38;4.10;;;2.40;;
3299;SDS011;1662;49.310;8.134;2023-03-31T18:17:04;3.03;;;1.60;;
3299;SDS011;1662;49.310;8.134;2023-03-31T18:19:30;2.30;;;1.80;;
3299;SDS011;1662;49.310;8.134;2023-03-31T18:21:55;4.43;;;2.17;;
3299;SDS011;1662;49.310;8.134;2023-03-31T18:24:21;2.43;;;1.90;;
3299;SDS011;1662;49.310;8.134;2023-03-31T18:26:47;2.87;;;2.30;;
3299;SDS011;1662;49.310;8.134;2023-03-31T18:29:13;7.63;;;3.40;;
3299;SDS011;1662;49.310;8.134;2023-03-31T18:31:39;4.23;;;2.93;;
3299;SDS011;1662;49.310;8.134;2023-03-31T18:34:05;3.77;;;2.63;;
3299;SDS011;1662;49.310;8.134;2023-03-31T18:36:31;2.00;;;1.80;;
3299;SDS011;1662;49.310;8.134;2023-03-31T18:38:57;2.80;;;2.13;;
3299;SDS011;1662;49.310;8.134;2023-03-31T18:41:22;4.17;;;3.77;;
3299;SDS011;1662;49.310;8.134;2023-03-31T18:43:49;3.70;;;3.40;;
3299;SDS011;1662;49.310;8.134;2023-03-31T18:46:18;3.60;;;2.70;;
3299;SDS011;1662;49.310;8.134;2023-03-31T18:48:44;3.07;;;2.87;;
3299;SDS011;1662;49.310;8.134;2023-03-31T18:51:10;2.60;;;2.30;;